Time;durP1;ratioP1;P1;durP2;ratioP2;P2;SDS_P1;SDS_P2;PMS_P1;PMS_P2;Temp;Humidity;BMP_temperature;BMP_pressure;BME280_temperature;BME280_humidity;BME280_pressure;Samples;Min_cycle;Max_cycle;Signal;HPM_P1;HPM_P2
2022/10/26 00:01:10;;;;;;;9.57;7.57;;;9.10;99.90;;;9.27;91.69;98118.63;5048153;28;20441;-73
2022/10/26 00:03:39;;;;;;;13.77;8.07;;;9.10;99.90;;;9.26;92.17;98113.47;5076879;28;20560;-73
2022/10/26 00:06:10;;;;;;;9.47;7.70;;;9.00;99.90;;;9.14;92.67;98113.22;5048658;28;20456;-73
2022/10/26 00:08:38;;;;;;;8.77;7.87;;;9.00;99.90;;;9.24;92.36;98112.81;5049155;28;20460;-72
2022/10/26 00:11:06;;;;;;;8.97;6.97;;;9.00;99.90;;;9.23;92.17;98114.69;5044479;28;20450;-72
2022/10/26 00:13:36;;;;;;;10.73;7.60;;;9.00;99.90;;;9.30;91.83;98112.81;5062094;28;20817;-74
2022/10/26 00:16:09;;;;;;;12.60;8.00;;;9.00;99.90;;;9.32;91.62;98105.34;5047339;28;20568;-74
2022/10/26 00:18:37;;;;;;;9.50;7.70;;;9.00;99.90;;;9.33;91.47;98109.75;5069554;28;20442;-72
2022/10/26 00:21:05;;;;;;;7.80;7.00;;;9.10;99.90;;;9.31;91.98;98098.31;5046021;28;20888;-73
2022/10/26 00:23:33;;;;;;;9.97;7.80;;;9.10;99.90;;;9.32;91.35;98101.84;5055819;28;20496;-74
2022/10/26 00:26:01;;;;;;;8.43;6.83;;;9.10;99.90;;;9.22;91.52;98104.94;5046128;28;20466;-73
2022/10/26 00:28:30;;;;;;;9.57;7.30;;;9.10;99.90;;;9.31;91.76;98113.66;5050228;28;20982;-73
2022/10/26 00:31:02;;;;;;;8.00;6.77;;;9.10;99.90;;;9.25;92.17;98109.94;5038611;28;20985;-73
2022/10/26 00:33:29;;;;;;;8.70;7.30;;;9.10;99.90;;;9.24;92.40;98108.28;5043220;28;20497;-74
2022/10/26 00:35:57;;;;;;;8.20;6.87;;;9.10;99.90;;;9.22;92.88;98110.34;5038339;28;20534;-74
2022/10/26 00:38:24;;;;;;;12.13;7.30;;;9.10;99.90;;;9.28;93.51;98114.09;5061718;28;20499;-75
2022/10/26 00:40:51;;;;;;;11.37;7.10;;;9.10;99.90;;;9.44;93.13;98107.47;5046313;28;20467;-73
2022/10/26 00:43:38;;;;;;;9.10;6.93;;;9.30;99.90;;;9.43;93.12;98100.41;5063931;28;20849;-74
2022/10/26 00:46:12;;;;;;;8.43;6.57;;;9.30;99.90;;;9.46;93.21;98110.78;5044249;28;20524;-74
2022/10/26 00:48:44;;;;;;;7.87;6.43;;;9.40;99.90;;;9.53;92.72;98108.94;5063283;28;21138;-74
2022/10/26 00:51:20;;;;;;;9.60;6.33;;;9.50;99.90;;;9.51;93.27;98113.69;5053939;28;20975;-74
2022/10/26 00:53:48;;;;;;;6.93;6.23;;;9.50;99.90;;;9.60;93.10;98106.22;5051540;28;20990;-73
2022/10/26 00:56:15;;;;;;;7.27;6.33;;;9.50;99.90;;;9.63;92.97;98101.25;5061469;28;20875;-74
2022/10/26 00:58:44;;;;;;;9.80;6.30;;;9.60;99.90;;;9.76;92.33;98099.56;5067182;28;20513;-74
2022/10/26 01:01:12;;;;;;;7.37;6.07;;;9.70;99.90;;;9.81;92.04;98094.41;5058333;28;20459;-74
2022/10/26 01:03:39;;;;;;;6.73;5.97;;;9.70;99.90;;;9.73;91.57;98067.63;5058828;28;20547;-75
2022/10/26 01:06:09;;;;;;;6.13;5.50;;;9.80;99.90;;;9.73;92.28;98083.81;5054621;28;20962;-73
2022/10/26 01:08:37;;;;;;;10.10;5.90;;;9.80;99.90;;;9.71;92.10;98075.09;5063550;28;20542;-73
2022/10/26 01:11:05;;;;;;;10.20;5.63;;;9.80;99.90;;;9.82;91.65;98071.78;5054476;28;20530;-74
2022/10/26 01:13:35;;;;;;;5.37;4.90;;;9.80;99.90;;;9.82;91.70;98066.38;5050373;28;20462;-74
2022/10/26 01:16:20;;;;;;;7.47;4.80;;;9.80;99.90;;;9.97;90.89;98068.03;5054530;28;20474;-74
2022/10/26 01:18:59;;;;;;;10.97;5.40;;;9.90;99.90;;;9.99;90.75;98063.25;5059373;28;20865;-73
2022/10/26 01:21:55;;;;;;;9.40;5.17;;;9.90;99.90;;;10.01;91.09;98058.47;5053241;28;20459;-74
2022/10/26 01:25:01;;;;;;;7.17;5.30;;;9.90;99.90;;;9.96;90.17;98055.56;5037900;28;20450;-74
2022/10/26 01:27:32;;;;;;;9.00;5.10;;;9.90;99.90;;;9.87;91.04;98069.28;5051413;28;20466;-74
2022/10/26 01:30:28;;;;;;;5.70;4.80;;;9.90;99.90;;;10.03;90.84;98068.00;5049237;28;20458;-73
2022/10/26 01:33:21;;;;;;;4.30;3.90;;;10.00;99.90;;;10.06;90.30;98066.75;5043047;28;20932;-73
2022/10/26 01:36:05;;;;;;;7.37;4.60;;;10.00;99.90;;;9.89;89.16;98036.69;5064138;28;20474;-75
2022/10/26 01:38:43;;;;;;;5.90;4.83;;;10.10;99.90;;;10.11;89.68;98064.25;5048160;28;20614;-75
2022/10/26 01:41:17;;;;;;;7.93;4.43;;;10.10;99.90;;;10.11;89.88;98058.03;5038404;28;20464;-73
2022/10/26 01:43:52;;;;;;;7.00;4.70;;;10.10;99.90;;;10.12;89.39;98056.97;5042795;28;20455;-74
2022/10/26 01:46:23;;;;;;;5.07;4.57;;;10.00;99.90;;;10.07;89.47;98047.66;5048090;28;20639;-74
2022/10/26 01:48:56;;;;;;;5.93;4.50;;;10.10;99.90;;;10.17;90.04;98063.41;5066374;28;20456;-73
2022/10/26 01:51:25;;;;;;;9.53;4.37;;;10.00;99.90;;;10.10;89.69;98051.81;5051434;28;20463;-75
2022/10/26 01:53:52;;;;;;;4.70;4.30;;;10.00;99.90;;;10.19;90.66;98064.00;5046057;28;20458;-74
2022/10/26 01:56:22;;;;;;;5.57;4.33;;;10.00;99.90;;;10.21;90.04;98061.94;5040923;28;20481;-74
2022/10/26 01:59:19;;;;;;;5.20;4.20;;;10.00;99.90;;;10.22;90.46;98049.28;5048620;28;20447;-74
2022/10/26 02:02:36;;;;;;;8.23;4.63;;;10.00;99.90;;;10.36;89.69;98052.75;5041811;28;20534;-74
2022/10/26 02:05:26;;;;;;;4.63;4.23;;;10.10;99.90;;;10.37;87.63;98053.59;5054934;28;20460;-72
2022/10/26 02:08:05;;;;;;;5.13;3.93;;;10.30;99.90;;;10.40;88.38;98064.81;5045956;28;20460;-72
2022/10/26 02:10:46;;;;;;;4.07;3.70;;;10.30;99.90;;;10.48;87.68;98080.78;5041021;28;20505;-73
2022/10/26 02:13:21;;;;;;;5.13;3.67;;;10.30;99.90;;;10.53;86.99;98087.41;5047879;28;20513;-73
2022/10/26 02:15:54;;;;;;;5.87;3.97;;;10.40;99.90;;;10.55;87.31;98085.34;5035982;28;21003;-73
2022/10/26 02:18:32;;;;;;;4.33;3.93;;;10.40;99.90;;;10.59;87.01;98097.38;5042151;28;20518;-74
2022/10/26 02:21:06;;;;;;;4.33;3.70;;;10.40;99.90;;;10.62;86.83;98086.13;5038527;28;20452;-73
2022/10/26 02:23:37;;;;;;;4.63;3.93;;;10.50;99.90;;;10.31;87.84;98082.28;5038455;28;20480;-73
2022/10/26 02:26:08;;;;;;;4.90;4.50;;;10.40;99.90;;;10.49;86.88;98071.63;5036202;28;20468;-72
2022/10/26 02:28:42;;;;;;;5.17;4.50;;;10.50;99.90;;;10.20;86.78;98024.34;5051939;28;20460;-73
2022/10/26 02:31:11;;;;;;;5.63;4.07;;;10.50;99.10;;;10.29;88.19;98055.47;5052793;28;20456;-71
2022/10/26 02:33:44;;;;;;;9.20;4.10;;;10.40;99.40;;;10.26;88.01;98055.09;5047560;28;21026;-74
2022/10/26 02:36:17;;;;;;;4.70;4.20;;;10.40;99.30;;;10.17;88.85;98032.88;5044628;28;20473;-73
2022/10/26 02:38:47;;;;;;;3.53;3.23;;;10.30;99.90;;;10.38;87.51;98047.94;5046818;28;20607;-75
2022/10/26 02:41:15;;;;;;;5.03;4.17;;;10.30;99.90;;;10.44;87.77;98057.09;5050152;28;20461;-73
2022/10/26 02:43:52;;;;;;;7.50;4.20;;;10.40;99.90;;;10.35;87.96;98060.03;5038660;28;20462;-75
2022/10/26 02:46:23;;;;;;;5.07;4.10;;;10.30;99.90;;;10.53;87.79;98052.28;5039971;28;20842;-75
2022/10/26 02:48:52;;;;;;;7.13;3.90;;;10.40;99.90;;;10.42;88.28;98040.28;5045596;28;20503;-74
2022/10/26 02:51:28;;;;;;;4.80;4.30;;;10.40;99.90;;;10.54;87.29;98056.66;5042626;28;20941;-74
2022/10/26 02:54:01;;;;;;;4.97;4.30;;;10.50;99.90;;;10.44;88.34;98051.72;5045987;28;20460;-75
2022/10/26 02:56:38;;;;;;;6.17;4.47;;;10.50;99.90;;;10.45;88.08;98050.66;5040255;28;20577;-74
2022/10/26 02:59:08;;;;;;;4.63;4.03;;;10.40;99.90;;;10.51;88.07;98068.72;5047923;28;20457;-75
2022/10/26 03:01:36;;;;;;;4.10;3.70;;;10.40;99.90;;;10.63;87.31;98060.78;5032304;28;20474;-74
2022/10/26 03:04:05;;;;;;;4.70;4.30;;;10.40;99.90;;;10.79;86.72;98072.13;5055001;28;20522;-75
2022/10/26 03:06:32;;;;;;;7.00;3.50;;;10.60;99.90;;;10.26;87.07;98006.47;5043201;28;20517;-73
2022/10/26 03:08:59;;;;;;;5.37;3.70;;;10.60;99.90;;;10.66;87.06;98065.75;5061329;28;20456;-75
2022/10/26 03:11:27;;;;;;;6.83;4.87;;;10.60;99.90;;;10.55;86.45;98074.53;5036622;28;20464;-72
2022/10/26 03:13:54;;;;;;;5.90;4.23;;;10.40;99.90;;;10.45;87.23;98070.41;5041858;28;20487;-74
2022/10/26 03:16:21;;;;;;;6.03;4.20;;;10.50;99.90;;;10.16;89.29;98056.34;5044550;28;20519;-75
2022/10/26 03:18:49;;;;;;;8.57;4.70;;;10.40;99.90;;;10.38;89.71;98066.84;5052650;28;20468;-74
2022/10/26 03:21:17;;;;;;;5.27;4.77;;;10.50;99.90;;;10.71;87.70;98067.81;5041053;28;20480;-73
2022/10/26 03:23:46;;;;;;;5.00;4.13;;;10.60;99.90;;;10.73;88.00;98060.31;5044852;28;20465;-74
2022/10/26 03:26:13;;;;;;;6.33;4.10;;;10.60;99.90;;;10.69;87.45;98070.75;5056466;28;20453;-74
2022/10/26 03:28:41;;;;;;;7.30;4.20;;;10.60;99.90;;;10.74;87.60;98068.22;5045206;28;20573;-75
2022/10/26 03:31:10;;;;;;;4.73;3.60;;;10.60;99.90;;;10.76;87.54;98066.13;5045285;28;20453;-75
2022/10/26 03:33:37;;;;;;;4.90;3.60;;;10.70;99.90;;;10.76;87.01;98055.31;5039912;28;20467;-73
2022/10/26 03:36:05;;;;;;;7.23;4.50;;;10.70;99.90;;;10.87;87.07;98061.09;5037670;28;20492;-73
2022/10/26 03:38:34;;;;;;;4.63;4.23;;;10.70;99.90;;;10.87;87.09;98067.31;5050839;28;20525;-73
2022/10/26 03:41:01;;;;;;;7.30;4.87;;;10.80;99.90;;;10.85;87.61;98055.06;5052485;28;20490;-74
2022/10/26 03:43:28;;;;;;;4.70;4.20;;;10.80;99.90;;;10.92;88.14;98053.16;5046576;28;20465;-73
2022/10/26 03:45:56;;;;;;;6.60;4.53;;;10.80;99.90;;;10.79;88.55;98058.63;5045798;28;20513;-73
2022/10/26 03:48:23;;;;;;;5.30;4.30;;;10.80;99.90;;;10.79;89.13;98047.81;5053396;28;20453;-73
2022/10/26 03:50:51;;;;;;;5.27;3.90;;;10.70;99.90;;;10.92;89.01;98039.63;5061557;28;20453;-73
2022/10/26 03:53:18;;;;;;;3.97;3.67;;;10.80;99.90;;;10.86;89.67;98049.44;5052650;28;20468;-74
2022/10/26 03:55:47;;;;;;;5.43;4.20;;;10.80;99.90;;;10.89;89.94;98056.28;5048636;28;20456;-73
2022/10/26 03:58:14;;;;;;;4.40;3.77;;;10.80;99.90;;;10.83;90.31;98044.47;5048027;28;20516;-73
2022/10/26 04:00:42;;;;;;;5.77;4.80;;;10.80;99.90;;;10.85;90.19;98041.56;5060569;28;20451;-73
2022/10/26 04:03:09;;;;;;;5.37;4.50;;;10.90;99.90;;;10.85;90.88;98052.38;5051879;28;20467;-72
2022/10/26 04:05:36;;;;;;;7.80;5.20;;;10.80;99.90;;;10.89;90.41;98050.88;5061483;28;20454;-74
2022/10/26 04:08:04;;;;;;;6.17;4.77;;;10.80;99.90;;;10.90;91.12;98056.06;5064305;28;20956;-73
2022/10/26 04:10:32;;;;;;;5.73;4.60;;;10.90;99.90;;;11.07;90.28;98052.03;5057317;28;20527;-75
2022/10/26 04:13:01;;;;;;;6.30;4.07;;;10.90;99.90;;;10.97;89.79;98056.03;5048865;28;20455;-75
2022/10/26 04:15:28;;;;;;;5.20;4.67;;;11.00;99.90;;;10.93;90.04;98049.41;5047284;28;20451;-75
2022/10/26 04:17:57;;;;;;;6.43;4.63;;;11.00;99.90;;;10.95;90.42;98051.91;5041177;28;20969;-73
2022/10/26 04:20:25;;;;;;;7.80;4.90;;;11.00;99.90;;;11.04;90.66;98056.81;5062307;28;20569;-74
2022/10/26 04:23:01;;;;;;;7.33;4.60;;;11.00;99.90;;;11.07;90.67;98055.56;5038176;28;20511;-73
2022/10/26 04:25:28;;;;;;;4.70;4.20;;;11.00;99.90;;;10.84;90.82;98035.31;5045357;28;20960;-73
2022/10/26 04:27:56;;;;;;;7.33;5.10;;;11.00;99.90;;;10.98;91.27;98071.19;5041248;28;20467;-73
2022/10/26 04:30:25;;;;;;;6.10;4.90;;;11.00;99.90;;;10.95;91.78;98078.94;5042705;28;20472;-74
2022/10/26 04:32:52;;;;;;;6.17;5.40;;;10.90;99.90;;;11.09;91.30;98068.84;5036833;28;20467;-72
2022/10/26 04:35:19;;;;;;;5.00;4.60;;;11.00;99.90;;;11.02;90.82;98069.75;5042578;28;20450;-72
2022/10/26 04:37:46;;;;;;;6.77;4.87;;;11.10;99.90;;;11.05;90.96;98077.41;5040782;28;20940;-72
2022/10/26 04:40:14;;;;;;;8.80;4.63;;;11.10;99.90;;;11.11;90.76;98074.88;5042806;28;21112;-71
2022/10/26 04:42:43;;;;;;;5.53;4.97;;;11.00;99.90;;;11.11;91.41;98075.72;5039143;28;20462;-71
2022/10/26 04:45:11;;;;;;;8.80;4.20;;;11.00;99.90;;;11.15;90.65;98084.22;5040322;28;20502;-71
2022/10/26 04:47:41;;;;;;;6.30;3.83;;;11.10;99.90;;;11.00;90.93;98077.25;5038902;28;20468;-71
2022/10/26 04:50:10;;;;;;;5.10;4.60;;;11.10;99.90;;;10.98;91.60;98076.59;5030755;28;20464;-72
2022/10/26 04:52:38;;;;;;;4.37;4.00;;;11.00;99.90;;;11.08;90.80;98073.44;5038710;28;20465;-71
2022/10/26 04:55:08;;;;;;;10.00;5.00;;;11.10;99.90;;;11.12;90.72;98068.41;5034224;28;20972;-72
2022/10/26 04:57:36;;;;;;;6.43;4.87;;;11.10;99.90;;;11.13;91.00;98080.88;5030425;28;21209;-72
2022/10/26 05:00:05;;;;;;;7.60;5.37;;;11.00;99.90;;;11.22;90.27;98084.16;5041940;28;20470;-72
2022/10/26 05:02:33;;;;;;;4.63;4.27;;;11.10;99.90;;;11.18;90.46;98081.09;5032809;28;20493;-72
2022/10/26 05:05:01;;;;;;;6.67;4.63;;;11.00;99.90;;;11.09;90.73;98080.50;5054554;28;20466;-71
2022/10/26 05:07:29;;;;;;;8.53;4.63;;;11.00;99.90;;;11.25;90.28;98084.56;5052973;28;20530;-71
2022/10/26 05:09:56;;;;;;;5.30;4.30;;;11.00;99.90;;;11.27;89.74;98076.25;5048297;28;20464;-72
2022/10/26 05:12:23;;;;;;;6.77;4.40;;;11.10;99.90;;;11.18;90.28;98076.50;5040996;28;21098;-70
2022/10/26 05:14:50;;;;;;;7.00;5.20;;;11.10;99.90;;;11.24;90.39;98066.69;5042274;28;20463;-73
2022/10/26 05:17:18;;;;;;;5.43;4.83;;;11.10;99.90;;;11.27;90.21;98066.22;5040459;28;20472;-72
2022/10/26 05:19:51;;;;;;;5.63;5.03;;;11.20;99.90;;;11.19;90.66;98059.22;5034340;28;20519;-71
2022/10/26 05:22:20;;;;;;;5.87;4.87;;;11.20;99.90;;;11.19;90.30;98064.63;5041717;28;20454;-74
2022/10/26 05:24:47;;;;;;;9.20;5.33;;;11.30;99.90;;;11.32;91.21;98069.13;5045847;28;20475;-75
2022/10/26 05:27:14;;;;;;;6.50;4.90;;;11.30;99.90;;;11.33;91.14;98075.34;5056140;28;20456;-75
2022/10/26 05:29:44;;;;;;;5.47;5.00;;;11.30;99.90;;;11.48;91.25;98083.16;5042972;28;20462;-76
2022/10/26 05:32:11;;;;;;;8.50;5.43;;;11.40;99.90;;;11.38;90.73;98072.00;5039254;28;20448;-74
2022/10/26 05:34:38;;;;;;;7.67;5.60;;;11.40;99.90;;;11.33;91.01;98075.34;5033581;28;20473;-72
2022/10/26 05:37:07;;;;;;;8.63;5.67;;;11.40;99.90;;;11.59;91.14;98078.91;5058061;28;20478;-76
2022/10/26 05:39:35;;;;;;;7.30;5.67;;;11.40;99.90;;;11.89;89.31;98078.25;5027156;28;20793;-74
2022/10/26 05:42:03;;;;;;;5.80;4.80;;;11.70;99.90;;;11.90;89.32;98088.00;5041338;28;20830;-75
2022/10/26 05:44:30;;;;;;;5.77;5.17;;;11.70;99.90;;;11.86;88.60;98084.09;5061705;28;20531;-73
2022/10/26 05:46:58;;;;;;;8.13;5.40;;;11.70;99.90;;;11.78;88.42;98077.09;5038792;28;20465;-76
2022/10/26 05:49:25;;;;;;;7.00;5.60;;;11.80;99.90;;;11.55;89.03;98078.53;5035060;28;20467;-76
2022/10/26 05:51:55;;;;;;;9.13;6.20;;;11.70;99.90;;;11.48;89.59;98085.88;5040593;28;20471;-74
2022/10/26 05:54:23;;;;;;;7.23;6.20;;;11.60;99.90;;;11.48;90.25;98085.88;5051286;28;20987;-76
2022/10/26 05:56:52;;;;;;;8.20;7.00;;;11.60;99.90;;;11.45;90.65;98067.38;5047308;28;20468;-73
2022/10/26 05:59:21;;;;;;;9.63;6.70;;;11.50;99.90;;;11.57;90.86;98084.53;5042460;28;20514;-75
2022/10/26 06:02:02;;;;;;;10.37;6.50;;;11.60;99.90;;;11.45;91.47;98076.31;5044536;28;20527;-75
2022/10/26 06:04:37;;;;;;;8.10;7.23;;;11.50;99.90;;;11.54;91.01;98076.88;5044736;28;20473;-73
2022/10/26 06:07:11;;;;;;;9.60;6.20;;;11.50;99.90;;;11.55;90.81;98078.53;5039201;28;20542;-74
2022/10/26 06:09:40;;;;;;;6.60;5.93;;;11.50;99.90;;;11.51;90.37;98082.72;5038754;28;20459;-72
2022/10/26 06:12:11;;;;;;;10.60;6.67;;;11.60;99.90;;;11.39;90.94;98081.78;5040445;28;20459;-73
2022/10/26 06:14:39;;;;;;;8.57;6.00;;;11.60;99.90;;;11.42;91.25;98095.69;5039506;28;20591;-75
2022/10/26 06:17:27;;;;;;;9.00;6.57;;;11.50;99.90;;;11.52;90.87;98087.09;5040255;28;20588;-73
2022/10/26 06:20:21;;;;;;;6.87;6.17;;;11.60;99.90;;;11.51;91.87;98088.13;5045619;28;20554;-71
2022/10/26 06:23:05;;;;;;;13.07;6.50;;;11.60;99.90;;;11.69;90.58;98091.94;5044275;28;20469;-73
2022/10/26 06:25:44;;;;;;;8.60;5.40;;;11.70;99.90;;;11.77;90.38;98087.09;5042281;28;20508;-74
2022/10/26 06:28:26;;;;;;;7.50;6.10;;;11.70;99.90;;;11.88;90.08;98085.53;5045192;28;20467;-74
2022/10/26 06:30:53;;;;;;;5.90;5.30;;;11.80;99.90;;;11.83;89.89;98088.06;5028538;28;20488;-72
2022/10/26 06:33:20;;;;;;;10.50;6.27;;;11.80;99.90;;;11.76;90.70;98090.03;5029679;28;20958;-72
2022/10/26 06:35:58;;;;;;;6.93;6.07;;;11.80;99.90;;;11.98;90.03;98100.44;5041927;28;20956;-74
2022/10/26 06:38:30;;;;;;;8.27;6.10;;;11.90;99.90;;;11.94;89.68;98101.94;5029585;28;20503;-74
2022/10/26 06:40:59;;;;;;;10.87;5.87;;;11.90;99.90;;;11.93;90.09;98106.53;5034971;28;20484;-73
2022/10/26 06:43:31;;;;;;;9.10;5.77;;;12.00;99.90;;;11.77;90.46;98091.69;5045300;28;20488;-74
2022/10/26 06:46:10;;;;;;;6.43;5.83;;;11.90;99.90;;;11.86;89.93;98100.34;5033692;28;20544;-73
2022/10/26 06:48:51;;;;;;;7.70;5.47;;;11.90;99.90;;;11.61;89.70;98042.47;5033498;28;20975;-72
2022/10/26 06:51:20;;;;;;;8.27;5.47;;;12.00;99.90;;;11.60;89.62;98043.53;5037555;28;20984;-75
2022/10/26 06:53:57;;;;;;;10.20;5.90;;;12.00;99.90;;;11.97;90.14;98106.91;5043862;28;20459;-74
2022/10/26 06:56:24;;;;;;;6.80;5.40;;;12.00;99.90;;;11.99;90.05;98089.41;5033621;28;20529;-75
2022/10/26 06:58:56;;;;;;;8.57;5.83;;;12.10;99.90;;;11.65;89.83;98023.91;5038256;28;21044;-73
2022/10/26 07:01:23;;;;;;;8.23;5.10;;;12.10;99.90;;;12.29;89.36;98090.59;5049849;28;20461;-75
2022/10/26 07:03:50;;;;;;;5.30;4.50;;;12.20;99.90;;;12.36;87.88;98096.78;5035518;28;20464;-75
2022/10/26 07:06:17;;;;;;;5.73;4.63;;;12.40;99.90;;;12.38;87.61;98083.81;5028386;28;22830;-72
2022/10/26 07:08:45;;;;;;;6.03;4.40;;;12.40;98.90;;;12.42;87.37;98087.72;5035007;28;20453;-73
2022/10/26 07:11:12;;;;;;;6.17;4.57;;;12.50;98.90;;;12.62;86.78;98097.50;5043591;28;20455;-73
2022/10/26 07:13:39;;;;;;;5.70;4.73;;;12.50;99.10;;;12.39;87.40;98101.75;5038535;28;20511;-74
2022/10/26 07:16:08;;;;;;;5.67;4.27;;;12.50;98.70;;;12.36;88.44;98115.75;5047694;28;20477;-77
2022/10/26 07:18:35;;;;;;;6.90;4.07;;;12.40;99.90;;;12.29;88.71;98117.66;5030795;28;20488;-76
2022/10/26 07:21:03;;;;;;;6.13;4.50;;;12.40;99.90;;;12.34;88.31;98134.06;5030372;28;20460;-76
2022/10/26 07:23:30;;;;;;;9.83;4.30;;;12.40;99.90;;;12.43;88.08;98116.47;5041077;28;20487;-75
2022/10/26 07:25:59;;;;;;;4.73;4.37;;;12.40;99.90;;;12.65;87.37;98140.41;5029575;28;20476;-77
2022/10/26 07:28:27;;;;;;;6.40;4.73;;;12.60;99.90;;;12.88;86.24;98125.34;5020982;28;20472;-78
2022/10/26 07:30:54;;;;;;;6.27;3.90;;;12.70;99.20;;;13.00;85.35;98123.53;5037965;28;20532;-79
2022/10/26 07:33:23;;;;;;;4.80;3.80;;;12.90;97.20;;;12.98;85.00;98139.22;5042945;28;20979;-79
2022/10/26 07:35:51;;;;;;;5.20;4.70;;;13.00;96.00;;;12.90;85.16;98134.09;5033496;28;20456;-77
2022/10/26 07:38:18;;;;;;;4.93;4.20;;;13.00;95.50;;;12.95;85.07;98141.53;5033325;28;20465;-80
2022/10/26 07:40:47;;;;;;;4.77;3.80;;;13.00;95.80;;;12.91;83.48;98073.38;5034840;28;20536;-79
2022/10/26 07:43:17;;;;;;;4.40;4.00;;;13.20;95.40;;;13.22;83.87;98143.91;5037434;28;20467;-77
2022/10/26 07:45:44;;;;;;;3.93;3.63;;;13.20;94.80;;;13.23;83.22;98130.09;5031461;28;20472;-77
2022/10/26 07:48:12;;;;;;;8.90;4.33;;;13.30;94.50;;;13.23;84.03;98148.28;5041587;28;20507;-77
2022/10/26 07:50:40;;;;;;;5.03;3.70;;;13.20;94.90;;;13.05;83.73;98139.13;5030484;28;20480;-78
2022/10/26 07:53:08;;;;;;;3.63;3.33;;;13.20;94.50;;;13.65;82.14;98169.22;5038489;28;20479;-77
2022/10/26 07:55:35;;;;;;;4.37;3.93;;;13.40;94.60;;;13.76;80.93;98160.28;5039326;28;20471;-77
2022/10/26 07:58:02;;;;;;;3.83;3.43;;;13.60;93.90;;;13.31;83.15;98162.34;5038015;28;20558;-77
2022/10/26 08:00:30;;;;;;;4.63;3.77;;;13.50;93.70;;;13.70;81.65;98169.34;5025545;28;20458;-79
2022/10/26 08:02:58;;;;;;;6.00;3.47;;;13.50;93.70;;;13.81;80.98;98167.75;5038731;28;20490;-79
2022/10/26 08:05:26;;;;;;;7.57;4.37;;;13.60;93.50;;;13.68;81.33;98169.59;5036821;28;20478;-78
2022/10/26 08:07:54;;;;;;;4.17;3.77;;;13.60;93.50;;;13.56;82.28;98177.69;5052703;28;20464;-77
2022/10/26 08:10:21;;;;;;;5.97;3.70;;;13.50;93.70;;;13.58;82.01;98175.59;5035208;28;21078;-78
2022/10/26 08:12:49;;;;;;;5.93;3.20;;;13.60;93.80;;;13.73;81.73;98177.03;5041629;28;20471;-79
2022/10/26 08:15:16;;;;;;;4.63;3.37;;;13.60;93.70;;;13.60;81.34;98178.91;5039653;28;20453;-80
2022/10/26 08:17:43;;;;;;;4.27;3.70;;;13.70;93.10;;;13.85;80.41;98158.88;5043052;28;20477;-78
2022/10/26 08:20:11;;;;;;;5.60;3.50;;;13.80;93.20;;;13.67;80.19;98123.66;5048563;28;20471;-79
2022/10/26 08:22:38;;;;;;;8.00;4.33;;;13.90;92.80;;;14.03;79.38;98181.59;5051243;28;20468;-79
2022/10/26 08:25:08;;;;;;;12.60;4.70;;;13.90;92.30;;;14.02;79.37;98185.34;5051628;28;20452;-77
2022/10/26 08:27:36;;;;;;;5.30;3.57;;;14.00;92.20;;;13.91;79.79;98184.28;5054753;28;21225;-80
2022/10/26 08:30:03;;;;;;;5.23;3.93;;;13.90;92.10;;;14.03;79.63;98176.16;5055461;28;20496;-80
2022/10/26 08:32:31;;;;;;;4.50;3.53;;;14.00;92.10;;;14.15;78.92;98174.25;5057108;28;20476;-79
2022/10/26 08:34:58;;;;;;;3.87;3.30;;;14.00;91.80;;;14.08;79.24;98175.44;5048504;28;21230;-78
2022/10/26 08:37:27;;;;;;;3.60;3.30;;;14.00;92.10;;;14.25;78.65;98162.00;5048055;28;20449;-78
2022/10/26 08:39:54;;;;;;;3.53;3.20;;;14.20;91.80;;;14.04;79.66;98177.81;5041191;28;20462;-77
2022/10/26 08:42:29;;;;;;;5.80;3.60;;;14.00;91.80;;;14.36;78.30;98188.34;5045400;28;20934;-75
2022/10/26 08:45:01;;;;;;;6.60;3.77;;;14.30;91.60;;;14.36;78.16;98163.06;5057998;28;20533;-77
2022/10/26 08:47:33;;;;;;;5.47;3.13;;;14.30;91.60;;;14.36;78.00;98173.91;5040752;28;20465;-80
2022/10/26 08:50:05;;;;;;;4.30;3.30;;;14.40;91.10;;;14.27;78.18;98138.13;5040513;28;20456;-79
2022/10/26 08:52:38;;;;;;;6.50;3.60;;;14.40;91.20;;;14.65;77.26;98174.03;5040834;28;20459;-77
2022/10/26 08:55:13;;;;;;;3.90;3.50;;;14.60;91.10;;;14.85;76.40;98160.06;5031131;28;20512;-78
2022/10/26 08:57:42;;;;;;;4.10;3.20;;;14.70;90.90;;;14.77;76.28;98171.31;5028112;28;20459;-77
2022/10/26 09:00:15;;;;;;;4.10;3.47;;;14.80;90.50;;;15.11;75.18;98185.91;5029864;28;20497;-79
2022/10/26 09:02:43;;;;;;;6.53;3.07;;;15.00;90.30;;;15.15;75.17;98191.69;5036193;28;20955;-77
2022/10/26 09:05:17;;;;;;;3.47;2.67;;;15.10;90.20;;;15.00;75.50;98189.47;5044880;28;20467;-78
2022/10/26 09:07:56;;;;;;;6.57;3.80;;;15.10;90.00;;;15.14;75.66;98195.50;5024169;28;20552;-78
2022/10/26 09:10:40;;;;;;;4.20;3.03;;;15.10;90.10;;;15.33;74.96;98198.03;5032281;28;20469;-79
2022/10/26 09:13:25;;;;;;;3.23;2.70;;;15.30;90.00;;;15.34;74.04;98194.25;5035164;28;21258;-78
2022/10/26 09:16:03;;;;;;;4.13;3.00;;;15.30;89.50;;;15.65;73.41;98194.81;5044894;28;20956;-78
2022/10/26 09:18:46;;;;;;;6.73;4.50;;;15.40;89.40;;;15.78;72.86;98182.81;5037687;28;20934;-78
2022/10/26 09:21:29;;;;;;;3.70;2.90;;;15.60;89.20;;;15.89;72.31;98190.09;5029197;28;20464;-79
2022/10/26 09:24:04;;;;;;;6.87;3.33;;;15.80;88.70;;;15.84;71.92;98185.34;5041736;28;20810;-79
2022/10/26 09:26:39;;;;;;;6.73;2.90;;;15.80;88.30;;;16.17;71.59;98187.56;5039395;28;20510;-79
2022/10/26 09:29:13;;;;;;;4.20;3.77;;;15.90;88.50;;;16.53;70.26;98199.03;5036149;28;20466;-78
2022/10/26 09:31:43;;;;;;;3.20;2.90;;;16.20;88.20;;;16.39;70.44;98195.84;5042955;28;20468;-80
2022/10/26 09:34:22;;;;;;;7.23;3.43;;;16.20;87.60;;;16.38;70.31;98202.34;5039430;28;20594;-79
2022/10/26 09:36:54;;;;;;;7.17;3.43;;;16.30;87.40;;;16.53;69.82;98208.03;5051081;28;20482;-77
2022/10/26 09:39:33;;;;;;;5.60;3.47;;;16.40;87.30;;;16.59;69.86;98208.09;5041309;28;20486;-78
2022/10/26 09:42:11;;;;;;;3.77;3.37;;;16.40;87.20;;;16.80;69.60;98204.59;5036640;28;20992;-72
2022/10/26 09:44:45;;;;;;;5.33;3.60;;;16.50;87.30;;;16.71;69.72;98215.09;5046538;28;20520;-72
2022/10/26 09:47:27;;;;;;;5.80;3.50;;;16.50;87.10;;;16.83;69.08;98219.63;5044717;28;20468;-73
2022/10/26 09:50:00;;;;;;;4.63;4.10;;;16.60;86.90;;;16.90;69.33;98220.25;5042323;28;20536;-75
2022/10/26 09:52:28;;;;;;;6.43;3.70;;;16.60;87.10;;;16.89;69.29;98229.53;5048520;28;20485;-72
2022/10/26 09:54:55;;;;;;;6.97;3.70;;;16.60;87.00;;;16.92;69.03;98234.50;5040735;28;20458;-73
2022/10/26 09:57:23;;;;;;;5.23;3.80;;;16.60;87.00;;;16.77;69.23;98239.75;5036159;28;20453;-73
2022/10/26 09:59:54;;;;;;;5.27;4.27;;;16.60;86.70;;;16.61;70.34;98234.06;5043048;28;20478;-73
2022/10/26 10:02:37;;;;;;;4.37;3.33;;;16.50;87.10;;;16.56;70.80;98240.25;5039493;28;20489;-73
2022/10/26 10:05:27;;;;;;;6.90;4.00;;;16.40;87.30;;;16.73;70.34;98236.69;5030427;28;20833;-71
2022/10/26 10:08:11;;;;;;;4.43;3.60;;;16.40;87.40;;;16.97;69.30;98245.50;5043681;28;20475;-73
2022/10/26 10:10:39;;;;;;;4.97;3.70;;;16.60;87.20;;;17.26;68.42;98242.63;5036280;28;20461;-73
2022/10/26 10:13:17;;;;;;;6.20;3.63;;;16.80;87.10;;;17.42;68.14;98237.34;5036972;28;20516;-74
2022/10/26 10:15:54;;;;;;;5.63;3.63;;;17.00;86.80;;;17.45;68.24;98242.28;5029806;28;20467;-72
2022/10/26 10:18:23;;;;;;;4.77;4.00;;;17.20;86.50;;;17.79;67.68;98253.03;5036831;28;20481;-73
2022/10/26 10:20:57;;;;;;;5.47;3.90;;;17.40;86.60;;;18.14;66.25;98258.34;5035100;28;20531;-73
2022/10/26 10:23:31;;;;;;;5.30;3.70;;;17.60;86.10;;;18.21;64.74;98253.47;5040118;28;20450;-73
2022/10/26 10:26:05;;;;;;;7.90;4.03;;;17.80;85.00;;;17.97;65.56;98248.31;5040679;28;20461;-73
2022/10/26 10:28:33;;;;;;;4.67;3.30;;;17.80;84.90;;;18.36;64.81;98245.41;5048742;28;20451;-74
2022/10/26 10:31:04;;;;;;;5.80;3.77;;;17.90;85.40;;;18.31;64.14;98248.13;5044617;28;20561;-73
2022/10/26 10:33:38;;;;;;;7.63;3.93;;;17.90;84.40;;;18.31;64.02;98248.13;5036141;28;21122;-72
2022/10/26 10:36:10;;;;;;;4.30;3.80;;;18.10;84.20;;;18.64;63.20;98251.66;5030059;28;20544;-73
2022/10/26 10:38:43;;;;;;;5.13;3.57;;;18.20;84.10;;;18.63;62.86;98252.72;5053058;28;20584;-72